Time;durP1;ratioP1;P1;durP2;ratioP2;P2;SDS_P1;SDS_P2;PMS_P1;PMS_P2;Temp;Humidity;BMP_temperature;BMP_pressure;BME280_temperature;BME280_humidity;BME280_pressure;Samples;Min_cycle;Max_cycle;Signal;HPM_P1;HPM_P2
2021/12/09 00:45:10;;;;;;;15.67;9.77;;;;;;;;;;5072526;28;20233;-81
2021/12/09 00:47:36;;;;;;;14.03;9.17;;;;;;;;;;5039991;28;20287;-81
2021/12/09 00:50:03;;;;;;;16.70;10.23;;;;;;;;;;5039857;28;20203;-81
2021/12/09 00:52:29;;;;;;;13.47;8.73;;;;;;;;;;5055843;28;20200;-81
2021/12/09 00:54:56;;;;;;;15.73;9.43;;;;;;;;;;5039738;28;20181;-81
2021/12/09 00:57:22;;;;;;;16.03;9.80;;;;;;;;;;5039372;28;20183;-81
2021/12/09 00:59:49;;;;;;;16.17;9.43;;;;;;;;;;5039511;28;20609;-81
2021/12/09 01:02:15;;;;;;;15.40;10.03;;;;;;;;;;5055536;28;20694;-81
2021/12/09 01:04:41;;;;;;;15.50;9.60;;;;;;;;;;5056382;28;20182;-81
2021/12/09 01:07:08;;;;;;;15.83;9.13;;;;;;;;;;5055538;28;20206;-81
2021/12/09 01:09:34;;;;;;;16.10;9.80;;;;;;;;;;5055812;28;20183;-81
2021/12/09 01:12:00;;;;;;;16.20;9.60;;;;;;;;;;5038969;28;20192;-81
2021/12/09 01:14:26;;;;;;;15.77;9.37;;;;;;;;;;5055734;28;20229;-81
2021/12/09 01:16:52;;;;;;;15.50;9.47;;;;;;;;;;5055825;28;20183;-81
2021/12/09 01:19:18;;;;;;;17.13;9.60;;;;;;;;;;5055465;28;20720;-81
2021/12/09 01:21:45;;;;;;;16.47;9.90;;;;;;;;;;5055555;28;20200;-81
2021/12/09 01:24:11;;;;;;;15.03;9.37;;;;;;;;;;5055362;28;20178;-81
2021/12/09 01:26:37;;;;;;;13.77;9.07;;;;;;;;;;5038969;28;20212;-81
2021/12/09 01:29:12;;;;;;;15.33;9.30;;;;;;;;;;5039076;28;20214;-81
2021/12/09 01:31:40;;;;;;;15.20;8.93;;;;;;;;;;5040171;28;20195;-81
2021/12/09 01:34:08;;;;;;;16.40;9.80;;;;;;;;;;5055776;28;20225;-81
2021/12/09 01:36:36;;;;;;;14.97;9.70;;;;;;;;;;5055333;28;20183;-81
2021/12/09 01:39:04;;;;;;;14.90;9.40;;;;;;;;;;5055627;28;20626;-81
2021/12/09 01:41:30;;;;;;;15.00;9.27;;;;;;;;;;5055639;28;20278;-81
2021/12/09 01:43:56;;;;;;;16.97;9.60;;;;;;;;;;5073019;28;20198;-81
2021/12/09 01:46:22;;;;;;;18.57;10.33;;;;;;;;;;5055308;28;20203;-81
2021/12/09 01:48:49;;;;;;;16.83;10.07;;;;;;;;;;5038530;28;20175;-81
2021/12/09 01:51:16;;;;;;;17.27;9.43;;;;;;;;;;5054825;28;20199;-81
2021/12/09 01:53:42;;;;;;;17.27;9.90;;;;;;;;;;5054852;28;20183;-81
2021/12/09 01:56:09;;;;;;;17.30;10.40;;;;;;;;;;5038666;28;20183;-81
2021/12/09 01:58:36;;;;;;;16.47;10.53;;;;;;;;;;5038942;28;20225;-81
2021/12/09 02:01:02;;;;;;;18.67;10.53;;;;;;;;;;5054968;28;20586;-81
2021/12/09 02:03:28;;;;;;;17.07;10.27;;;;;;;;;;5054963;28;20175;-81
2021/12/09 02:05:54;;;;;;;18.73;10.93;;;;;;;;;;5055105;28;20202;-81
2021/12/09 02:08:20;;;;;;;22.90;11.97;;;;;;;;;;5054838;28;20237;-80
2021/12/09 02:10:48;;;;;;;22.27;11.80;;;;;;;;;;5054768;28;20665;-81
2021/12/09 02:13:15;;;;;;;17.83;11.43;;;;;;;;;;5038837;28;20176;-81
2021/12/09 02:15:41;;;;;;;22.10;10.97;;;;;;;;;;5038587;28;20184;-81
2021/12/09 02:18:09;;;;;;;18.97;10.77;;;;;;;;;;5055096;28;20188;-81
2021/12/09 02:20:37;;;;;;;26.30;11.97;;;;;;;;;;5054510;28;20198;-81
2021/12/09 02:23:08;;;;;;;23.80;12.83;;;;;;;;;;5038830;28;20184;-81
2021/12/09 02:25:35;;;;;;;24.13;12.13;;;;;;;;;;5038710;28;20290;-81
2021/12/09 02:28:01;;;;;;;21.80;11.37;;;;;;;;;;5054672;28;20187;-81
2021/12/09 02:30:27;;;;;;;20.50;11.63;;;;;;;;;;5054703;28;20177;-81
2021/12/09 02:32:53;;;;;;;21.23;11.17;;;;;;;;;;5054764;28;20712;-80
2021/12/09 02:35:19;;;;;;;23.03;12.17;;;;;;;;;;5038174;28;20179;-81
2021/12/09 02:37:45;;;;;;;21.13;11.33;;;;;;;;;;5038190;28;20183;-81
2021/12/09 02:40:12;;;;;;;22.40;12.00;;;;;;;;;;5054671;28;20180;-80
2021/12/09 02:42:38;;;;;;;21.03;11.37;;;;;;;;;;5038104;28;20182;-80
2021/12/09 02:45:05;;;;;;;25.67;12.37;;;;;;;;;;5055026;28;20248;-81
2021/12/09 02:47:31;;;;;;;24.03;11.97;;;;;;;;;;5054812;28;20207;-81
2021/12/09 02:49:57;;;;;;;22.90;11.80;;;;;;;;;;5054932;28;20184;-81
2021/12/09 02:52:23;;;;;;;23.40;12.27;;;;;;;;;;5054209;28;20690;-81
2021/12/09 02:54:49;;;;;;;22.30;12.17;;;;;;;;;;5055591;28;20171;-81
2021/12/09 02:57:16;;;;;;;22.47;11.23;;;;;;;;;;5041959;28;20197;-81
2021/12/09 02:59:42;;;;;;;24.60;12.63;;;;;;;;;;5058013;28;20237;-81
2021/12/09 03:02:10;;;;;;;22.50;11.93;;;;;;;;;;5041593;28;20204;-81
2021/12/09 03:04:39;;;;;;;21.53;11.43;;;;;;;;;;5041768;28;20715;-81
2021/12/09 03:07:07;;;;;;;20.67;11.10;;;;;;;;;;5058476;28;20207;-81
2021/12/09 03:09:34;;;;;;;19.90;10.70;;;;;;;;;;5041792;28;20180;-81
2021/12/09 03:12:04;;;;;;;20.00;11.47;;;;;;;;;;5057954;28;20198;-81
2021/12/09 03:14:31;;;;;;;20.87;11.27;;;;;;;;;;5041764;28;20663;-81
2021/12/09 03:16:57;;;;;;;20.57;11.20;;;;;;;;;;5058354;28;20175;-81
2021/12/09 03:19:23;;;;;;;21.03;12.37;;;;;;;;;;5057905;28;20188;-81
2021/12/09 03:21:49;;;;;;;23.27;12.00;;;;;;;;;;5057453;28;20204;-81
2021/12/09 03:24:17;;;;;;;21.90;11.87;;;;;;;;;;5057590;28;20188;-81
2021/12/09 03:26:49;;;;;;;21.07;11.90;;;;;;;;;;5058050;28;20222;-80
2021/12/09 03:29:16;;;;;;;26.20;11.97;;;;;;;;;;5041327;28;20246;-80
2021/12/09 03:31:44;;;;;;;22.97;11.33;;;;;;;;;;5041021;28;20281;-80
2021/12/09 03:34:11;;;;;;;20.60;11.57;;;;;;;;;;5057760;28;20202;-80
2021/12/09 03:36:37;;;;;;;23.90;12.30;;;;;;;;;;5058047;28;20180;-80
2021/12/09 03:39:05;;;;;;;21.20;11.40;;;;;;;;;;5057795;28;20183;-80
2021/12/09 03:41:31;;;;;;;18.93;11.30;;;;;;;;;;5041425;28;20207;-80
2021/12/09 03:43:57;;;;;;;20.57;11.40;;;;;;;;;;5057898;28;20194;-80
2021/12/09 03:46:23;;;;;;;20.43;11.67;;;;;;;;;;5057650;28;20210;-80
2021/12/09 03:48:49;;;;;;;25.83;12.50;;;;;;;;;;5040916;28;20278;-80
2021/12/09 03:51:15;;;;;;;23.53;11.77;;;;;;;;;;5057486;28;20253;-80
2021/12/09 03:53:41;;;;;;;23.73;12.30;;;;;;;;;;5041102;28;20180;-80
2021/12/09 03:56:07;;;;;;;21.97;11.27;;;;;;;;;;5041244;28;20236;-80
2021/12/09 03:58:34;;;;;;;20.17;10.90;;;;;;;;;;5057495;28;20317;-80
2021/12/09 04:01:00;;;;;;;21.00;11.50;;;;;;;;;;5056947;28;20199;-80
2021/12/09 04:03:26;;;;;;;21.17;11.40;;;;;;;;;;5057053;28;20269;-80
2021/12/09 04:05:52;;;;;;;27.40;12.37;;;;;;;;;;5056827;28;20214;-80
2021/12/09 04:08:20;;;;;;;22.70;11.67;;;;;;;;;;5040756;28;20639;-80
2021/12/09 04:10:46;;;;;;;23.13;11.97;;;;;;;;;;5056672;28;20190;-80
2021/12/09 04:13:12;;;;;;;22.00;12.27;;;;;;;;;;5040736;28;20324;-81
2021/12/09 04:15:38;;;;;;;21.30;11.73;;;;;;;;;;5040121;28;20646;-81
2021/12/09 04:18:04;;;;;;;22.40;12.30;;;;;;;;;;5057125;28;20178;-81
2021/12/09 04:20:30;;;;;;;24.10;12.20;;;;;;;;;;5056516;28;20211;-80
2021/12/09 04:22:56;;;;;;;21.27;11.10;;;;;;;;;;5056895;28;20183;-80
2021/12/09 04:25:24;;;;;;;20.93;11.17;;;;;;;;;;5056776;28;20222;-80
2021/12/09 04:27:51;;;;;;;21.53;11.27;;;;;;;;;;5057135;28;20228;-80
2021/12/09 04:30:19;;;;;;;24.73;11.47;;;;;;;;;;5056699;28;20182;-80
2021/12/09 04:32:45;;;;;;;20.83;11.90;;;;;;;;;;5056556;28;20176;-80
2021/12/09 04:35:12;;;;;;;21.20;11.23;;;;;;;;;;5040138;28;20184;-80
2021/12/09 04:37:39;;;;;;;18.43;11.67;;;;;;;;;;5056136;28;20191;-80
2021/12/09 04:40:07;;;;;;;21.60;11.70;;;;;;;;;;5056605;28;20187;-80
2021/12/09 04:42:33;;;;;;;25.30;12.47;;;;;;;;;;5056166;28;20196;-81
2021/12/09 04:44:59;;;;;;;21.90;11.80;;;;;;;;;;5039575;28;20195;-81
2021/12/09 04:47:25;;;;;;;27.90;12.37;;;;;;;;;;5039684;28;20236;-81
2021/12/09 04:49:51;;;;;;;23.80;12.03;;;;;;;;;;5056562;28;20592;-81
2021/12/09 04:52:17;;;;;;;22.27;11.40;;;;;;;;;;5039317;28;20217;-81
2021/12/09 04:54:43;;;;;;;24.10;12.30;;;;;;;;;;5039741;28;20242;-81
2021/12/09 04:57:10;;;;;;;23.53;12.33;;;;;;;;;;5039644;28;20670;-80
2021/12/09 04:59:36;;;;;;;23.33;11.87;;;;;;;;;;5039590;28;20248;-80
2021/12/09 05:02:02;;;;;;;25.67;11.80;;;;;;;;;;5039258;28;20627;-80
2021/12/09 05:04:28;;;;;;;18.30;11.03;;;;;;;;;;5055876;28;20527;-80
2021/12/09 05:06:55;;;;;;;20.23;10.77;;;;;;;;;;5039290;28;20678;-80
2021/12/09 05:09:21;;;;;;;24.10;11.17;;;;;;;;;;5055668;28;20211;-80
2021/12/09 05:11:48;;;;;;;21.63;11.43;;;;;;;;;;5055693;28;20195;-80
2021/12/09 05:14:21;;;;;;;20.43;11.33;;;;;;;;;;5039263;28;20270;-81
2021/12/09 05:16:48;;;;;;;24.13;12.20;;;;;;;;;;5055771;28;20188;-81
2021/12/09 05:19:14;;;;;;;23.23;12.23;;;;;;;;;;5055636;28;20186;-81
2021/12/09 05:21:40;;;;;;;25.97;12.03;;;;;;;;;;5073495;28;20202;-81
2021/12/09 05:24:07;;;;;;;23.47;13.30;;;;;;;;;;5038959;28;20269;-81
2021/12/09 05:26:41;;;;;;;24.47;12.20;;;;;;;;;;5039348;28;20238;-81
2021/12/09 05:29:07;;;;;;;23.97;12.03;;;;;;;;;;5055733;28;20169;-81
2021/12/09 05:34:18;;;;;;;21.37;11.73;;;;;;;;;;5058424;28;20211;-81
2021/12/09 05:36:44;;;;;;;19.80;11.33;;;;;;;;;;5039218;28;20184;-81
2021/12/09 05:39:11;;;;;;;24.90;12.17;;;;;;;;;;5038941;28;20294;-81
2021/12/09 05:41:37;;;;;;;24.07;11.87;;;;;;;;;;5038534;28;20211;-80
2021/12/09 05:44:04;;;;;;;22.90;12.80;;;;;;;;;;5039046;28;20264;-80
2021/12/09 05:46:30;;;;;;;23.70;12.10;;;;;;;;;;5055453;28;20222;-80
2021/12/09 05:48:56;;;;;;;22.50;12.20;;;;;;;;;;5073341;28;20233;-80
2021/12/09 05:51:23;;;;;;;23.43;12.67;;;;;;;;;;5038400;28;20208;-80
2021/12/09 05:53:49;;;;;;;22.13;11.77;;;;;;;;;;5054972;28;20168;-81
2021/12/09 05:56:15;;;;;;;21.83;11.43;;;;;;;;;;5038709;28;20178;-80
2021/12/09 05:58:42;;;;;;;24.03;12.87;;;;;;;;;;5073409;28;20205;-81
2021/12/09 06:01:08;;;;;;;22.73;11.47;;;;;;;;;;5038458;28;20227;-80
2021/12/09 06:03:56;;;;;;;24.10;12.47;;;;;;;;;;5038395;28;20584;-80
2021/12/09 06:06:22;;;;;;;24.03;11.63;;;;;;;;;;5055105;28;20679;-80
2021/12/09 06:08:48;;;;;;;27.07;13.13;;;;;;;;;;5055793;28;20179;-79
2021/12/09 06:11:14;;;;;;;28.17;12.63;;;;;;;;;;5039118;28;20289;-79
2021/12/09 06:13:40;;;;;;;25.00;13.20;;;;;;;;;;5074156;28;20177;-79
2021/12/09 06:16:07;;;;;;;25.27;12.60;;;;;;;;;;5073773;28;20242;-78
2021/12/09 06:18:33;;;;;;;26.00;13.00;;;;;;;;;;5072440;28;20625;-77
2021/12/09 06:20:59;;;;;;;24.50;12.43;;;;;;;;;;5038406;28;20233;-77
2021/12/09 06:23:25;;;;;;;24.07;12.80;;;;;;;;;;5055656;28;20182;-77
2021/12/09 06:25:52;;;;;;;25.53;12.37;;;;;;;;;;5039927;28;20202;-78
2021/12/09 06:28:18;;;;;;;26.47;12.33;;;;;;;;;;5055979;28;20179;-79
2021/12/09 06:30:45;;;;;;;26.13;12.23;;;;;;;;;;5058119;28;20194;-79
2021/12/09 06:33:11;;;;;;;21.50;11.90;;;;;;;;;;5059833;28;20214;-79
2021/12/09 06:35:37;;;;;;;23.83;11.87;;;;;;;;;;5043023;28;20185;-79
2021/12/09 06:38:05;;;;;;;22.73;11.97;;;;;;;;;;5077658;28;20633;-79
2021/12/09 06:42:59;;;;;;;20.33;10.53;;;;;;;;;;5059783;28;20208;-78
2021/12/09 06:45:25;;;;;;;19.70;8.73;;;;;;;;;;5023411;28;20176;-77
2021/12/09 06:47:53;;;;;;;23.40;10.30;;;;;;;;;;5021846;28;20187;-77
2021/12/09 06:50:20;;;;;;;21.97;10.37;;;;;;;;;;5038194;28;20177;-76
2021/12/09 06:52:46;;;;;;;17.90;9.13;;;;;;;;;;5037809;28;20190;-77
2021/12/09 06:55:14;;;;;;;16.47;8.40;;;;;;;;;;5055761;28;20161;-77
2021/12/09 06:57:42;;;;;;;15.20;8.90;;;;;;;;;;5056172;28;20647;-78
2021/12/09 07:00:09;;;;;;;20.80;11.13;;;;;;;;;;5041206;28;20210;-79
2021/12/09 07:02:35;;;;;;;20.23;10.37;;;;;;;;;;5041061;28;20671;-78
2021/12/09 07:05:01;;;;;;;18.67;10.00;;;;;;;;;;5023616;28;20182;-78
2021/12/09 07:07:27;;;;;;;17.83;9.87;;;;;;;;;;5024671;28;20213;-78
2021/12/09 07:09:53;;;;;;;18.87;10.27;;;;;;;;;;5040058;28;20560;-77
2021/12/09 07:12:19;;;;;;;25.73;13.17;;;;;;;;;;5023209;28;20205;-79
2021/12/09 07:14:46;;;;;;;21.37;11.70;;;;;;;;;;5023656;28;20174;-78
2021/12/09 07:17:12;;;;;;;19.57;10.33;;;;;;;;;;5042482;28;20247;-78
2021/12/09 07:19:38;;;;;;;17.90;9.70;;;;;;;;;;5024391;28;20654;-77
2021/12/09 07:22:04;;;;;;;23.07;11.00;;;;;;;;;;5038014;28;20571;-78
2021/12/09 07:24:31;;;;;;;18.17;9.67;;;;;;;;;;5037751;28;20227;-77
2021/12/09 07:26:57;;;;;;;20.73;9.90;;;;;;;;;;5055796;28;20209;-77
2021/12/09 07:29:23;;;;;;;22.40;11.23;;;;;;;;;;5021628;28;20639;-77
2021/12/09 07:31:49;;;;;;;22.13;10.33;;;;;;;;;;5037155;28;20197;-77
2021/12/09 07:34:16;;;;;;;21.80;10.40;;;;;;;;;;5037836;28;20636;-77
2021/12/09 07:36:43;;;;;;;20.80;11.07;;;;;;;;;;5037885;28;20251;-78
2021/12/09 07:39:08;;;;;;;22.00;10.57;;;;;;;;;;5055737;28;20191;-78
2021/12/09 07:41:35;;;;;;;20.50;10.53;;;;;;;;;;5036223;28;20216;-77
2021/12/09 07:44:02;;;;;;;21.73;11.67;;;;;;;;;;5037460;28;20267;-78
2021/12/09 07:46:29;;;;;;;22.13;10.33;;;;;;;;;;5037755;28;20614;-78
2021/12/09 07:48:55;;;;;;;26.00;11.13;;;;;;;;;;5054905;28;20182;-78
2021/12/09 07:51:21;;;;;;;19.83;10.67;;;;;;;;;;5036264;28;20243;-77
2021/12/09 07:53:47;;;;;;;20.40;10.63;;;;;;;;;;5020361;28;20176;-78
2021/12/09 07:56:13;;;;;;;18.27;9.67;;;;;;;;;;5036895;28;20187;-77
2021/12/09 07:58:39;;;;;;;21.03;11.10;;;;;;;;;;5020433;28;20184;-77
2021/12/09 08:01:05;;;;;;;18.17;9.83;;;;;;;;;;5036356;28;20204;-77
2021/12/09 08:03:31;;;;;;;21.80;9.77;;;;;;;;;;5036775;28;20175;-77
2021/12/09 08:05:57;;;;;;;17.30;9.37;;;;;;;;;;5036808;28;20203;-77
2021/12/09 08:08:23;;;;;;;18.27;9.73;;;;;;;;;;5037145;28;20184;-77
2021/12/09 08:10:49;;;;;;;14.23;8.53;;;;;;;;;;5020218;28;20196;-77
2021/12/09 08:13:15;;;;;;;14.20;8.33;;;;;;;;;;5036599;28;20187;-77
2021/12/09 08:15:49;;;;;;;17.17;9.03;;;;;;;;;;5054590;28;20172;-77
2021/12/09 08:20:45;;;;;;;16.37;8.47;;;;;;;;;;5059620;28;20169;-78
2021/12/09 08:23:11;;;;;;;17.77;8.83;;;;;;;;;;5042931;28;20179;-78
2021/12/09 08:25:37;;;;;;;16.17;8.30;;;;;;;;;;5026774;28;20579;-78
2021/12/09 08:28:04;;;;;;;17.07;8.83;;;;;;;;;;5025055;28;20179;-78
2021/12/09 08:30:30;;;;;;;34.47;10.70;;;;;;;;;;5026061;28;20184;-78
2021/12/09 08:32:56;;;;;;;15.73;8.07;;;;;;;;;;5026567;28;20210;-78
2021/12/09 08:35:22;;;;;;;15.13;8.67;;;;;;;;;;5024854;28;20234;-80
2021/12/09 08:37:48;;;;;;;16.23;8.37;;;;;;;;;;5038001;28;20188;-79
2021/12/09 08:40:15;;;;;;;17.67;8.40;;;;;;;;;;5038381;28;20180;-79
2021/12/09 08:42:42;;;;;;;14.90;8.47;;;;;;;;;;5021956;28;20222;-80
2021/12/09 08:45:10;;;;;;;15.27;8.30;;;;;;;;;;5021990;28;20202;-80
2021/12/09 08:47:37;;;;;;;14.47;8.60;;;;;;;;;;5021254;28;20209;-80
2021/12/09 08:50:03;;;;;;;15.07;8.60;;;;;;;;;;5054562;28;20210;-80
2021/12/09 08:52:29;;;;;;;16.90;8.80;;;;;;;;;;5036768;28;20294;-80
2021/12/09 08:54:55;;;;;;;17.13;8.50;;;;;;;;;;5037687;28;20663;-80
2021/12/09 08:57:22;;;;;;;15.07;9.07;;;;;;;;;;5037714;28;20246;-80
2021/12/09 08:59:48;;;;;;;16.57;8.37;;;;;;;;;;5037990;28;20668;-80
2021/12/09 09:02:15;;;;;;;17.93;8.63;;;;;;;;;;5020824;28;20204;-80
2021/12/09 09:04:41;;;;;;;17.03;8.20;;;;;;;;;;5037247;28;20282;-80
2021/12/09 09:07:08;;;;;;;13.97;8.40;;;;;;;;;;5037676;28;20206;-80
2021/12/09 09:09:35;;;;;;;14.97;8.57;;;;;;;;;;5021296;28;20184;-80
2021/12/09 09:12:06;;;;;;;13.83;7.60;;;;;;;;;;5037205;28;20199;-80
2021/12/09 09:14:32;;;;;;;17.00;9.30;;;;;;;;;;5037500;28;20208;-80
2021/12/09 09:16:58;;;;;;;17.90;8.40;;;;;;;;;;5054998;28;20178;-80
2021/12/09 09:19:24;;;;;;;16.40;9.30;;;;;;;;;;5037705;28;20274;-80
2021/12/09 09:21:50;;;;;;;14.70;8.13;;;;;;;;;;5037257;28;20204;-80
2021/12/09 09:24:16;;;;;;;14.90;8.67;;;;;;;;;;5020604;28;20279;-79
2021/12/09 09:26:42;;;;;;;16.03;8.50;;;;;;;;;;5020743;28;20215;-80
2021/12/09 09:29:09;;;;;;;14.83;8.70;;;;;;;;;;5036869;28;20175;-80
2021/12/09 09:31:35;;;;;;;16.37;9.07;;;;;;;;;;5036815;28;20264;-80
2021/12/09 09:34:05;;;;;;;16.10;8.57;;;;;;;;;;5037154;28;20193;-80
2021/12/09 09:36:31;;;;;;;18.27;9.30;;;;;;;;;;5021078;28;20180;-80
2021/12/09 09:39:06;;;;;;;16.37;8.93;;;;;;;;;;5037109;28;20175;-80
2021/12/09 09:41:33;;;;;;;16.63;9.60;;;;;;;;;;5036686;28;20234;-80
2021/12/09 09:44:11;;;;;;;17.00;9.43;;;;;;;;;;5020240;28;20184;-80
2021/12/09 09:46:37;;;;;;;20.00;10.50;;;;;;;;;;5036984;28;20678;-80
2021/12/09 09:49:03;;;;;;;21.33;10.27;;;;;;;;;;5036703;28;20176;-80
2021/12/09 09:51:30;;;;;;;20.23;10.17;;;;;;;;;;5037017;28;20199;-80
2021/12/09 09:53:56;;;;;;;17.27;10.07;;;;;;;;;;5036614;28;20175;-80
2021/12/09 09:56:24;;;;;;;21.43;9.97;;;;;;;;;;5020211;28;20193;-80
2021/12/09 09:58:52;;;;;;;20.07;9.30;;;;;;;;;;5036713;28;20528;-80
2021/12/09 10:01:18;;;;;;;16.50;9.07;;;;;;;;;;5036254;28;20200;-80
2021/12/09 10:03:47;;;;;;;17.00;9.43;;;;;;;;;;5036213;28;20190;-80
2021/12/09 10:06:13;;;;;;;14.33;8.57;;;;;;;;;;5036862;28;20213;-80
2021/12/09 10:08:39;;;;;;;17.10;9.00;;;;;;;;;;5019887;28;20557;-80
2021/12/09 10:11:06;;;;;;;16.47;9.27;;;;;;;;;;5019730;28;20230;-79
2021/12/09 10:13:33;;;;;;;20.37;11.10;;;;;;;;;;5019879;28;20184;-80
2021/12/09 10:16:00;;;;;;;16.40;8.87;;;;;;;;;;5036232;28;20232;-80
2021/12/09 10:18:34;;;;;;;15.20;8.90;;;;;;;;;;5020108;28;20231;-80
2021/12/09 10:21:00;;;;;;;16.03;8.37;;;;;;;;;;5035670;28;20205;-80
2021/12/09 10:23:26;;;;;;;19.33;9.47;;;;;;;;;;5036255;28;20179;-80
2021/12/09 10:26:11;;;;;;;14.73;8.07;;;;;;;;;;5036228;28;20209;-80
2021/12/09 10:28:40;;;;;;;13.83;7.93;;;;;;;;;;5036066;28;20175;-80
2021/12/09 10:31:15;;;;;;;13.27;7.20;;;;;;;;;;5035880;28;20199;-80
2021/12/09 10:34:06;;;;;;;13.17;7.30;;;;;;;;;;5035940;28;20239;-80
2021/12/09 10:36:39;;;;;;;11.23;7.50;;;;;;;;;;5019766;28;20190;-80
2021/12/09 10:39:17;;;;;;;12.93;7.20;;;;;;;;;;5019072;28;20269;-80
2021/12/09 10:41:43;;;;;;;11.70;6.73;;;;;;;;;;5035546;28;20218;-80
2021/12/09 10:44:10;;;;;;;12.03;7.27;;;;;;;;;;5019397;28;20206;-80
2021/12/09 10:47:09;;;;;;;11.90;6.53;;;;;;;;;;5019082;28;20227;-80
2021/12/09 10:49:46;;;;;;;10.87;6.50;;;;;;;;;;5053321;28;20173;-80
2021/12/09 10:52:23;;;;;;;11.20;6.67;;;;;;;;;;5035199;28;20230;-80
2021/12/09 10:54:49;;;;;;;10.63;6.67;;;;;;;;;;5019040;28;20199;-80
2021/12/09 10:57:22;;;;;;;11.30;6.47;;;;;;;;;;5018930;28;20190;-80
2021/12/09 10:59:48;;;;;;;12.30;6.80;;;;;;;;;;5035184;28;20232;-80
2021/12/09 11:02:14;;;;;;;12.93;7.27;;;;;;;;;;5018781;28;20204;-80
2021/12/09 11:04:40;;;;;;;13.83;7.30;;;;;;;;;;5019264;28;20671;-80
2021/12/09 11:07:19;;;;;;;10.67;6.70;;;;;;;;;;5035110;28;20222;-80
2021/12/09 11:09:46;;;;;;;11.97;7.07;;;;;;;;;;5035671;28;20177;-80
2021/12/09 11:12:28;;;;;;;13.30;7.53;;;;;;;;;;5035259;28;20204;-80
2021/12/09 11:15:00;;;;;;;13.93;6.80;;;;;;;;;;5035966;28;20179;-80
2021/12/09 11:17:41;;;;;;;15.63;8.03;;;;;;;;;;5024202;28;20182;-79
2021/12/09 11:20:07;;;;;;;13.23;7.77;;;;;;;;;;5037922;28;20183;-80
2021/12/09 11:22:36;;;;;;;13.30;8.47;;;;;;;;;;5021183;28;20560;-80
2021/12/09 11:25:05;;;;;;;15.03;8.53;;;;;;;;;;5038100;28;20183;-80
2021/12/09 11:27:31;;;;;;;13.90;8.50;;;;;;;;;;5021974;28;20291;-80
2021/12/09 11:30:13;;;;;;;14.37;8.00;;;;;;;;;;5038843;28;20177;-79
2021/12/09 11:35:17;;;;;;;13.40;7.90;;;;;;;;;;5040177;28;20178;-78
2021/12/09 11:37:56;;;;;;;12.73;7.60;;;;;;;;;;5040818;28;20229;-77
2021/12/09 11:40:50;;;;;;;14.40;7.70;;;;;;;;;;5039119;28;20260;-79
2021/12/09 11:43:21;;;;;;;12.60;6.83;;;;;;;;;;5057336;28;20198;-79
2021/12/09 11:45:48;;;;;;;68.53;21.20;;;;;;;;;;5023306;28;20183;-78
2021/12/09 11:48:15;;;;;;;16.30;8.50;;;;;;;;;;5040492;28;20176;-77
2021/12/09 11:50:43;;;;;;;12.97;7.40;;;;;;;;;;5055627;28;20172;-79
2021/12/09 11:53:10;;;;;;;12.40;7.47;;;;;;;;;;5037886;28;20294;-80
2021/12/09 11:55:45;;;;;;;11.67;7.10;;;;;;;;;;5038514;28;20178;-79
2021/12/09 11:58:19;;;;;;;15.03;7.73;;;;;;;;;;5040171;28;20186;-80
2021/12/09 12:12:43;;;;;;;12.27;7.10;;;;;;;;;;5039593;28;20636;-77
2021/12/09 12:23:38;;;;;;;12.00;8.40;;;;;;;;;;5037733;28;20192;-78
2021/12/09 12:26:37;;;;;;;10.23;7.33;;;;;;;;;;5021291;28;20219;-78
2021/12/09 12:40:01;;;;;;;13.67;8.23;;;;;;;;;;5038286;28;20164;-77
2021/12/09 12:42:41;;;;;;;11.10;7.53;;;;;;;;;;5070893;22;20219;-77
2021/12/09 12:45:14;;;;;;;11.40;7.33;;;;;;;;;;5075316;28;20197;-78
2021/12/09 12:47:48;;;;;;;11.47;7.03;;;;;;;;;;5057753;28;20213;-78
2021/12/09 12:50:16;;;;;;;10.43;6.87;;;;;;;;;;5059247;28;20157;-77
2021/12/09 12:52:44;;;;;;;12.17;7.00;;;;;;;;;;5057529;28;20193;-78
2021/12/09 12:55:15;;;;;;;14.33;7.20;;;;;;;;;;5041430;28;20178;-78
2021/12/09 12:57:44;;;;;;;13.53;7.87;;;;;;;;;;5040674;28;20276;-77
2021/12/09 13:00:11;;;;;;;12.03;6.87;;;;;;;;;;5041831;28;20181;-77
2021/12/09 13:16:10;;;;;;;14.10;6.77;;;;;;;;;;5075510;28;20177;-78
2021/12/09 13:18:43;;;;;;;8.53;6.67;;;;;;;;;;5057953;28;20209;-77
2021/12/09 13:21:28;;;;;;;14.33;7.10;;;;;;;;;;5056693;28;20194;-77
2021/12/09 13:24:13;;;;;;;10.67;6.80;;;;;;;;;;5056315;28;20619;-81
2021/12/09 13:26:59;;;;;;;14.17;7.70;;;;;;;;;;5056010;28;20248;-81
2021/12/09 13:30:02;;;;;;;13.43;7.63;;;;;;;;;;5055225;28;20295;-80
2021/12/09 13:32:51;;;;;;;13.40;7.23;;;;;;;;;;5072664;28;20198;-80
2021/12/09 13:35:29;;;;;;;11.53;7.10;;;;;;;;;;5055433;28;20181;-80
2021/12/09 13:38:15;;;;;;;12.37;7.30;;;;;;;;;;5055771;28;20186;-80
2021/12/09 13:49:09;;;;;;;10.93;6.70;;;;;;;;;;5073356;28;20172;-80
2021/12/09 13:57:07;;;;;;;14.77;7.57;;;;;;;;;;5047277;28;20695;-80
2021/12/09 13:59:34;;;;;;;10.90;7.13;;;;;;;;;;5039099;28;20276;-80
2021/12/09 14:02:11;;;;;;;13.07;7.40;;;;;;;;;;5038595;28;20273;-80
2021/12/09 14:04:38;;;;;;;10.80;7.00;;;;;;;;;;5055138;28;20180;-80
2021/12/09 14:09:31;;;;;;;10.77;7.40;;;;;;;;;;5073486;28;20177;-78
2021/12/09 14:11:59;;;;;;;13.23;8.27;;;;;;;;;;5039773;28;20284;-79
2021/12/09 14:14:35;;;;;;;13.40;8.20;;;;;;;;;;5039020;28;20181;-79
2021/12/09 14:17:03;;;;;;;14.87;9.93;;;;;;;;;;5055986;28;20219;-80
2021/12/09 14:22:24;;;;;;;16.27;9.10;;;;;;;;;;5073026;28;20207;-79
2021/12/09 14:24:51;;;;;;;13.63;9.07;;;;;;;;;;5055210;28;20177;-79
2021/12/09 14:27:18;;;;;;;15.03;8.97;;;;;;;;;;5038979;28;20354;-79
2021/12/09 14:29:48;;;;;;;13.23;10.40;;;;;;;;;;5039265;28;20177;-79
2021/12/09 14:32:14;;;;;;;15.13;10.20;;;;;;;;;;5073013;28;20268;-79
2021/12/09 14:35:06;;;;;;;17.20;10.13;;;;;;;;;;5055227;28;20177;-79
2021/12/09 14:37:33;;;;;;;17.30;9.63;;;;;;;;;;5052864;28;20185;-80
2021/12/09 14:40:10;;;;;;;15.60;9.60;;;;;;;;;;5055923;28;20194;-80
2021/12/09 14:42:49;;;;;;;17.67;8.70;;;;;;;;;;5054540;28;20267;-79
2021/12/09 14:45:15;;;;;;;17.60;9.40;;;;;;;;;;5055262;28;20184;-79
2021/12/09 14:47:41;;;;;;;17.27;9.27;;;;;;;;;;5054936;28;20209;-79
2021/12/09 14:50:08;;;;;;;14.10;9.90;;;;;;;;;;5038740;28;20186;-79
2021/12/09 14:52:39;;;;;;;11.27;8.40;;;;;;;;;;5058346;28;20235;-79
2021/12/09 14:55:12;;;;;;;13.37;8.60;;;;;;;;;;5059196;28;20260;-79
2021/12/09 14:57:54;;;;;;;14.00;9.00;;;;;;;;;;5058895;28;20263;-79
2021/12/09 15:00:32;;;;;;;14.70;8.00;;;;;;;;;;5058658;28;20204;-78
2021/12/09 15:02:59;;;;;;;13.17;7.93;;;;;;;;;;5058448;28;20201;-80
2021/12/09 15:05:25;;;;;;;11.60;7.80;;;;;;;;;;5042403;28;20181;-81
2021/12/09 15:07:59;;;;;;;14.87;8.43;;;;;;;;;;5041272;28;20221;-81
2021/12/09 15:10:26;;;;;;;17.37;9.77;;;;;;;;;;5057878;28;20181;-81
2021/12/09 15:12:52;;;;;;;17.07;9.47;;;;;;;;;;5076359;28;20268;-80
2021/12/09 15:15:29;;;;;;;25.47;12.47;;;;;;;;;;5076120;28;20644;-81
2021/12/09 15:17:59;;;;;;;17.33;8.97;;;;;;;;;;5057926;28;20181;-80
2021/12/09 15:20:40;;;;;;;10.93;7.20;;;;;;;;;;5041741;28;20185;-79
2021/12/09 15:23:16;;;;;;;13.60;7.33;;;;;;;;;;5063762;28;20191;-79
2021/12/09 15:25:43;;;;;;;12.13;7.57;;;;;;;;;;5070703;28;20188;-79
2021/12/09 15:28:12;;;;;;;25.33;13.37;;;;;;;;;;5074180;28;20214;-79
2021/12/09 15:30:44;;;;;;;24.13;10.57;;;;;;;;;;5058123;28;20654;-79
2021/12/09 15:33:12;;;;;;;15.40;8.87;;;;;;;;;;5058094;28;20174;-79
2021/12/09 15:35:38;;;;;;;25.30;11.87;;;;;;;;;;5041696;28;20197;-79
2021/12/09 15:38:05;;;;;;;17.00;8.30;;;;;;;;;;5041507;28;20238;-79
2021/12/09 15:40:39;;;;;;;13.53;7.57;;;;;;;;;;5051853;28;20529;-79
2021/12/09 15:43:12;;;;;;;14.10;6.47;;;;;;;;;;5037925;28;20217;-79
2021/12/09 15:45:39;;;;;;;15.87;8.53;;;;;;;;;;5038114;28;20272;-79
2021/12/09 15:48:21;;;;;;;11.30;6.17;;;;;;;;;;5037901;28;20672;-79
2021/12/09 15:50:54;;;;;;;13.97;7.30;;;;;;;;;;5037346;28;20170;-79
2021/12/09 15:53:20;;;;;;;13.93;8.30;;;;;;;;;;5062737;28;20528;-79
2021/12/09 15:55:47;;;;;;;13.43;7.03;;;;;;;;;;5057481;28;20169;-79
2021/12/09 15:58:13;;;;;;;13.27;8.20;;;;;;;;;;5057924;28;20173;-79
2021/12/09 16:00:39;;;;;;;19.37;9.57;;;;;;;;;;5057566;28;20188;-79
2021/12/09 16:03:06;;;;;;;22.43;9.97;;;;;;;;;;5040753;28;20177;-79
2021/12/09 16:05:32;;;;;;;18.00;8.60;;;;;;;;;;5041570;28;20222;-79
2021/12/09 16:07:59;;;;;;;23.50;9.87;;;;;;;;;;5057617;28;20228;-78
2021/12/09 16:10:25;;;;;;;21.53;10.20;;;;;;;;;;5076315;28;20669;-78
2021/12/09 16:12:51;;;;;;;22.63;10.93;;;;;;;;;;5041565;28;20201;-78
2021/12/09 16:15:19;;;;;;;17.47;8.33;;;;;;;;;;5041659;28;20203;-78
2021/12/09 16:17:47;;;;;;;27.67;11.27;;;;;;;;;;5041562;28;20181;-78
2021/12/09 16:20:20;;;;;;;11.60;6.93;;;;;;;;;;5058145;28;20177;-78
2021/12/09 16:22:46;;;;;;;23.20;8.97;;;;;;;;;;5058107;28;20229;-78
2021/12/09 16:25:15;;;;;;;23.17;9.97;;;;;;;;;;5041753;28;20658;-78
2021/12/09 16:27:47;;;;;;;24.10;10.37;;;;;;;;;;5041737;28;20205;-78
2021/12/09 16:30:18;;;;;;;28.90;10.93;;;;;;;;;;5064206;28;20262;-79